Time;durP1;ratioP1;P1;durP2;ratioP2;P2;SDS_P1;SDS_P2;PMS_P1;PMS_P2;Temp;Humidity;BMP_temperature;BMP_pressure;BME280_temperature;BME280_humidity;BME280_pressure;Samples;Min_cycle;Max_cycle;Signal;HPM_P1;HPM_P2
2022/10/22 00:00:32;;;;;;;35.58;27.15;;;14.90;99.90;;;;;;5122892;27;20081;-52
2022/10/22 00:02:57;;;;;;;35.20;27.10;;;15.00;99.90;;;;;;5122076;27;20502;-52
2022/10/22 00:05:23;;;;;;;37.28;28.02;;;15.10;99.90;;;;;;5125516;28;20032;-52
2022/10/22 00:07:49;;;;;;;40.90;27.33;;;15.10;99.90;;;;;;5076941;28;20032;-52
2022/10/22 00:10:16;;;;;;;36.50;27.20;;;15.20;99.90;;;;;;5115831;28;20106;-52
2022/10/22 00:12:42;;;;;;;37.35;25.90;;;15.20;99.90;;;;;;5125740;28;20031;-52
2022/10/22 00:15:09;;;;;;;45.10;28.65;;;15.20;99.90;;;;;;5121504;28;20019;-51
2022/10/22 00:17:35;;;;;;;42.08;29.08;;;15.30;99.90;;;;;;5118327;28;20031;-51
2022/10/22 00:20:01;;;;;;;39.25;29.98;;;15.40;99.90;;;;;;5124472;28;20023;-52
2022/10/22 00:22:27;;;;;;;40.40;28.88;;;15.40;99.90;;;;;;5121892;27;20039;-51
2022/10/22 00:24:53;;;;;;;49.03;34.72;;;15.20;99.90;;;;;;5127981;27;20028;-51
2022/10/22 00:27:18;;;;;;;46.47;31.55;;;15.30;99.90;;;;;;5124437;27;20015;-51
2022/10/22 00:29:44;;;;;;;46.30;31.80;;;15.30;99.90;;;;;;5109412;27;20042;-52
2022/10/22 00:32:10;;;;;;;46.58;33.70;;;15.40;99.90;;;;;;5124883;27;20160;-52
2022/10/22 00:34:36;;;;;;;41.67;32.80;;;15.30;99.90;;;;;;5133867;27;20476;-51
2022/10/22 00:37:01;;;;;;;41.95;31.80;;;15.30;99.90;;;;;;5123945;27;20505;-51
2022/10/22 00:39:28;;;;;;;43.53;31.50;;;15.30;99.90;;;;;;5119501;27;20024;-52
2022/10/22 00:41:55;;;;;;;44.42;31.67;;;15.40;99.90;;;;;;5129948;27;20042;-52
2022/10/22 00:44:58;;;;;;;44.10;31.67;;;15.40;99.90;;;;;;5126609;27;20023;-51
2022/10/22 00:47:26;;;;;;;39.95;28.67;;;15.40;99.90;;;;;;5123883;27;20374;-52
2022/10/22 00:49:54;;;;;;;49.03;33.30;;;15.40;99.90;;;;;;5122066;27;20382;-51
2022/10/22 00:52:21;;;;;;;37.50;27.23;;;15.30;99.90;;;;;;5125086;27;20051;-51
2022/10/22 00:54:47;;;;;;;44.92;30.88;;;15.20;99.90;;;;;;5131439;27;20059;-51
2022/10/22 00:57:15;;;;;;;36.78;27.08;;;15.30;99.90;;;;;;5104612;28;20031;-52
2022/10/22 00:59:41;;;;;;;36.92;26.52;;;15.20;99.90;;;;;;5120912;27;20062;-51
2022/10/22 01:02:07;;;;;;;38.22;25.38;;;15.30;99.90;;;;;;5129092;27;20398;-51
2022/10/22 01:04:33;;;;;;;35.53;25.30;;;15.30;99.90;;;;;;5121983;27;20042;-51
2022/10/22 01:06:58;;;;;;;40.45;25.45;;;15.30;99.90;;;;;;5122145;27;20028;-52
2022/10/22 01:09:36;;;;;;;38.10;25.63;;;15.20;99.90;;;;;;5126359;27;20123;-51
2022/10/22 01:12:08;;;;;;;33.38;25.73;;;15.20;99.90;;;;;;5128834;27;20027;-50
2022/10/22 01:14:39;;;;;;;;;;;15.10;99.90;;;;;;5122173;27;20062;-52
2022/10/22 01:17:17;;;;;;;34.35;24.80;;;15.00;99.90;;;;;;5128402;27;19910;-51
2022/10/22 01:20:00;;;;;;;34.03;25.25;;;15.00;99.90;;;;;;5109693;27;20039;-52
2022/10/22 01:22:44;;;;;;;35.28;24.70;;;15.10;99.90;;;;;;5131859;27;20042;-52
2022/10/22 01:25:36;;;;;;;40.50;26.05;;;15.10;99.90;;;;;;5120845;27;20083;-52
2022/10/22 01:28:22;;;;;;;32.30;24.60;;;15.20;99.90;;;;;;5120411;27;20028;-52
2022/10/22 01:30:52;;;;;;;35.10;24.98;;;15.10;99.90;;;;;;5128781;27;20031;-51
2022/10/22 01:33:21;;;;;;;33.28;24.50;;;15.20;99.90;;;;;;5119342;27;20031;-51
2022/10/22 01:35:48;;;;;;;36.88;24.45;;;15.20;99.90;;;;;;5108130;28;20456;-52
2022/10/22 01:38:18;;;;;;;37.75;25.73;;;15.20;99.90;;;;;;5102989;28;20040;-51
2022/10/22 01:40:46;;;;;;;37.03;25.83;;;15.20;99.90;;;;;;5103782;28;20089;-51
2022/10/22 01:43:12;;;;;;;32.25;23.42;;;15.20;99.90;;;;;;5102399;28;20170;-51
2022/10/22 01:45:45;;;;;;;33.78;24.50;;;15.10;99.90;;;;;;5099091;28;20134;-51
2022/10/22 01:48:35;;;;;;;36.28;25.08;;;15.10;99.90;;;;;;5104002;28;20085;-51
2022/10/22 01:51:42;;;;;;;38.88;26.20;;;15.10;99.90;;;;;;5076609;28;20027;-50
2022/10/22 04:38:03;;;;;;;26.10;18.20;;;14.10;99.90;;;;;;5045511;28;20059;-51
2022/10/22 04:40:28;;;;;;;24.30;17.67;;;14.30;99.90;;;;;;5056277;28;20041;-52
2022/10/22 04:42:55;;;;;;;33.50;18.80;;;14.20;99.90;;;;;;4985650;28;20044;-52
2022/10/22 04:45:20;;;;;;;25.80;19.77;;;14.20;99.90;;;;;;5050978;28;20123;-51
2022/10/22 04:47:46;;;;;;;26.27;19.70;;;14.20;99.90;;;;;;5052840;28;20022;-52
2022/10/22 04:50:12;;;;;;;26.45;19.77;;;14.10;99.90;;;;;;4994505;28;20115;-52
2022/10/22 04:52:38;;;;;;;25.83;21.75;;;14.20;99.90;;;;;;5057110;28;20491;-52
2022/10/22 04:55:04;;;;;;;26.52;19.70;;;14.20;99.90;;;;;;5053095;28;20084;-51
2022/10/22 04:57:30;;;;;;;31.33;23.15;;;14.10;99.90;;;;;;5049164;28;20053;-50
2022/10/22 04:59:56;;;;;;;27.80;21.42;;;13.90;99.90;;;;;;5045544;28;20026;-52
2022/10/22 05:02:22;;;;;;;30.20;21.02;;;14.00;99.90;;;;;;5036468;28;20036;-52
2022/10/22 05:04:48;;;;;;;29.33;22.23;;;14.10;99.90;;;;;;5049463;28;20028;-52
2022/10/22 05:07:14;;;;;;;33.40;20.83;;;14.00;99.90;;;;;;5056356;28;20057;-51
2022/10/22 05:09:40;;;;;;;27.70;21.25;;;13.70;99.90;;;;;;5044079;28;20024;-50
2022/10/22 05:12:05;;;;;;;32.08;21.02;;;13.60;99.90;;;;;;5034618;28;20127;-52
2022/10/22 05:14:31;;;;;;;27.90;21.48;;;13.50;99.90;;;;;;4994989;28;20033;-52
2022/10/22 05:16:57;;;;;;;28.88;20.50;;;13.60;99.90;;;;;;5010139;28;20439;-51
2022/10/22 05:19:25;;;;;;;31.73;21.80;;;13.60;99.90;;;;;;5048526;28;20104;-52
2022/10/22 05:21:56;;;;;;;27.10;20.55;;;13.80;99.90;;;;;;5052232;28;20033;-52
2022/10/22 05:24:22;;;;;;;29.83;19.48;;;14.00;99.90;;;;;;5053392;28;20021;-52
2022/10/22 05:26:49;;;;;;;35.50;25.13;;;14.10;99.90;;;;;;5056858;28;20103;-51
2022/10/22 05:29:15;;;;;;;35.45;25.75;;;14.20;99.90;;;;;;5047141;28;20025;-51
2022/10/22 05:31:41;;;;;;;33.65;25.63;;;14.30;99.90;;;;;;5000335;28;20037;-52
2022/10/22 05:34:07;;;;;;;44.42;26.52;;;14.40;99.90;;;;;;5043515;28;20410;-51
2022/10/22 05:36:32;;;;;;;47.72;28.40;;;14.60;99.90;;;;;;5053438;28;20056;-51
2022/10/22 05:38:58;;;;;;;40.50;24.65;;;14.80;99.90;;;;;;5053519;28;20057;-52
2022/10/22 05:41:26;;;;;;;49.47;26.33;;;14.90;99.90;;;;;;4987601;28;20048;-51
2022/10/22 05:43:57;;;;;;;37.92;24.48;;;15.40;99.90;;;;;;5011824;28;20044;-52
2022/10/22 05:46:24;;;;;;;34.40;20.40;;;15.20;99.90;;;;;;5051639;28;20048;-52
2022/10/22 05:48:53;;;;;;;28.40;17.83;;;14.60;99.90;;;;;;5052550;28;20481;-52
2022/10/22 05:51:19;;;;;;;28.02;19.60;;;14.40;99.90;;;;;;5012340;28;20415;-51
2022/10/22 05:53:49;;;;;;;38.00;28.60;;;14.60;99.90;;;;;;5054317;28;20025;-51
2022/10/22 05:56:15;;;;;;;29.08;21.48;;;15.10;99.90;;;;;;5048476;28;20115;-52
2022/10/22 05:58:42;;;;;;;30.33;20.23;;;14.80;99.90;;;;;;5031257;28;20068;-51
2022/10/22 06:01:11;;;;;;;45.70;34.42;;;15.40;99.90;;;;;;5042211;28;20021;-51
2022/10/22 06:03:37;;;;;;;37.20;27.55;;;;;;;;;;5051276;28;20165;-51
2022/10/22 06:06:34;;;;;;;21.58;17.83;;;15.30;99.90;;;;;;5050385;28;20407;-51
2022/10/22 06:09:24;;;;;;;29.17;18.25;;;15.40;99.90;;;;;;5050752;28;20479;-52
2022/10/22 06:11:51;;;;;;;20.75;15.35;;;15.80;99.90;;;;;;4956997;28;20035;-52
2022/10/22 06:14:17;;;;;;;40.38;24.50;;;16.40;99.90;;;;;;4956598;28;20437;-52
2022/10/22 06:16:43;;;;;;;25.90;16.00;;;16.80;99.90;;;;;;4955404;28;20546;-51
2022/10/22 06:19:12;;;;;;;24.20;17.73;;;16.80;99.90;;;;;;4955314;28;20039;-51
2022/10/22 06:21:37;;;;;;;20.23;13.80;;;16.90;99.90;;;;;;4954807;28;20434;-52
2022/10/22 06:24:03;;;;;;;23.17;15.20;;;16.90;99.90;;;;;;4956268;28;20050;-51
2022/10/22 06:26:29;;;;;;;29.33;14.05;;;16.90;99.90;;;;;;4953933;28;20035;-51
2022/10/22 06:28:56;;;;;;;18.25;12.70;;;16.90;99.90;;;;;;4955302;28;20042;-52
2022/10/22 06:31:22;;;;;;;25.45;15.70;;;16.90;99.90;;;;;;4953071;28;20038;-52
2022/10/22 06:33:48;;;;;;;20.77;16.83;;;16.60;99.90;;;;;;4949459;28;20118;-53
2022/10/22 06:36:17;;;;;;;23.92;16.40;;;16.60;99.90;;;;;;4951666;28;20058;-52
2022/10/22 06:38:43;;;;;;;20.17;13.10;;;16.60;99.90;;;;;;4946551;29;20048;-52
2022/10/22 06:41:12;;;;;;;19.90;14.27;;;17.10;99.90;;;;;;4946442;29;20023;-52
2022/10/22 06:43:38;;;;;;;30.40;20.80;;;19.10;99.90;;;;;;4920213;29;20047;-52
2022/10/22 06:46:08;;;;;;;49.65;39.88;;;20.70;99.90;;;;;;4954613;28;20612;-51
2022/10/22 06:48:36;;;;;;;61.55;46.65;;;;;;;;;;4985973;28;20040;-52
2022/10/22 06:51:06;;;;;;;53.20;40.03;;;;;;;;;;5043886;28;20131;-53
2022/10/22 06:53:32;;;;;;;83.80;63.15;;;;;;;;;;5047437;28;20029;-51
2022/10/22 06:55:57;;;;;;;30.95;23.05;;;25.50;99.90;;;;;;5008389;28;20033;-52
2022/10/22 06:58:23;;;;;;;50.80;39.25;;;24.40;99.90;;;;;;5045550;28;20028;-52
2022/10/22 07:00:49;;;;;;;33.53;25.42;;;;;;;;;;5050820;28;20036;-52
2022/10/22 07:03:15;;;;;;;30.63;24.23;;;21.80;99.90;;;;;;5042555;28;20049;-53
2022/10/22 07:05:41;;;;;;;66.30;46.85;;;21.70;99.90;;;;;;5050964;28;20028;-53
2022/10/22 07:08:07;;;;;;;34.42;24.48;;;20.70;99.90;;;;;;5050487;28;20028;-51
2022/10/22 07:10:34;;;;;;;23.67;18.17;;;;;;;;;;5049178;28;20515;-52
2022/10/22 07:12:59;;;;;;;22.98;15.85;;;24.80;99.90;;;;;;5050374;28;20041;-53
2022/10/22 07:15:26;;;;;;;25.95;20.20;;;;;;;;;;5023023;28;20033;-51
2022/10/22 07:17:51;;;;;;;16.90;12.68;;;27.40;99.90;;;;;;5052001;28;20055;-52
2022/10/22 07:20:19;;;;;;;33.63;23.85;;;27.90;99.90;;;;;;5049537;28;20025;-52
2022/10/22 07:22:45;;;;;;;25.17;20.42;;;26.90;99.30;;;;;;5008368;28;20049;-51
2022/10/22 07:25:11;;;;;;;19.55;14.40;;;28.20;99.90;;;;;;5042766;28;20029;-51
2022/10/22 07:27:37;;;;;;;19.88;15.57;;;;;;;;;;5011994;28;20039;-51
2022/10/22 07:30:04;;;;;;;16.67;14.77;;;30.70;99.90;;;;;;5013940;28;20387;-52
2022/10/22 07:32:30;;;;;;;21.73;12.90;;;;;;;;;;5047503;28;20021;-51
2022/10/22 07:34:56;;;;;;;15.88;13.00;;;28.90;99.90;;;;;;5003610;28;20030;-51
2022/10/22 07:37:21;;;;;;;26.23;20.63;;;28.70;94.50;;;;;;5008498;28;20396;-52
2022/10/22 07:39:48;;;;;;;18.80;13.18;;;28.90;98.10;;;;;;5032716;28;20029;-51
2022/10/22 07:42:14;;;;;;;13.25;9.98;;;29.20;99.30;;;;;;5024747;28;20500;-51
2022/10/22 07:44:39;;;;;;;12.20;9.32;;;29.40;99.90;;;;;;5029609;28;20029;-52
2022/10/22 07:47:05;;;;;;;19.88;16.27;;;;;;;;;;5024103;28;20036;-52
2022/10/22 07:49:32;;;;;;;15.45;11.85;;;;;;;;;;5028407;28;20392;-52
2022/10/22 07:51:58;;;;;;;28.30;19.42;;;;;;;;;;5024957;28;20116;-53
2022/10/22 07:54:24;;;;;;;32.15;25.45;;;;;;;;;;5041069;28;20049;-51
2022/10/22 07:56:50;;;;;;;17.38;11.40;;;;;;;;;;5024943;28;20037;-54
2022/10/22 07:59:16;;;;;;;14.00;10.02;;;;;;;;;;5027445;28;20029;-52
2022/10/22 08:01:42;;;;;;;21.33;16.23;;;33.70;92.10;;;;;;5023450;28;20052;-49
2022/10/22 08:04:08;;;;;;;18.73;14.60;;;34.00;87.90;;;;;;4976774;28;20026;-48
2022/10/22 08:06:35;;;;;;;25.48;20.45;;;33.10;85.20;;;;;;5023435;28;20029;-47
2022/10/22 08:09:00;;;;;;;21.17;14.00;;;32.10;84.50;;;;;;5026752;28;20033;-48
2022/10/22 08:11:27;;;;;;;20.63;13.95;;;;;;;;;;5028289;28;20484;-49
2022/10/22 08:13:52;;;;;;;17.98;14.50;;;32.20;99.90;;;;;;5009391;28;20119;-49
2022/10/22 08:16:19;;;;;;;14.82;12.50;;;;;;;;;;5010299;28;20465;-48
2022/10/22 08:18:44;;;;;;;12.68;9.55;;;34.70;81.70;;;;;;5027006;28;20116;-48
2022/10/22 08:21:11;;;;;;;11.05;8.35;;;;;;;;;;5022248;28;20105;-48
2022/10/22 08:23:37;;;;;;;14.93;10.35;;;;;;;;;;5019408;28;20056;-50
2022/10/22 08:26:04;;;;;;;11.23;6.28;;;31.10;99.40;;;;;;5004484;28;20458;-48
2022/10/22 08:28:31;;;;;;;18.42;11.73;;;28.60;96.50;;;;;;5022725;28;20134;-48
2022/10/22 08:30:57;;;;;;;16.13;8.20;;;27.30;81.80;;;;;;5032420;28;20103;-48
2022/10/22 08:33:23;;;;;;;14.40;6.07;;;26.70;82.60;;;;;;5025553;28;20680;-47
2022/10/22 08:35:51;;;;;;;14.27;8.57;;;26.60;87.30;;;;;;5012639;28;20081;-49
2022/10/22 08:38:17;;;;;;;19.23;5.68;;;;;;;;;;5034437;28;20048;-48
2022/10/22 08:40:46;;;;;;;14.07;6.18;;;;;;;;;;5041434;28;20053;-49
2022/10/22 08:43:36;;;;;;;9.38;5.32;;;28.40;99.90;;;;;;5011366;28;20045;-49
2022/10/22 08:46:12;;;;;;;9.90;5.80;;;28.20;85.50;;;;;;5051523;28;20032;-48
2022/10/22 08:48:57;;;;;;;14.55;6.20;;;28.10;85.80;;;;;;5049894;28;20484;-48
2022/10/22 08:51:27;;;;;;;8.27;5.30;;;28.40;85.60;;;;;;5046461;28;20025;-48
2022/10/22 08:54:12;;;;;;;11.02;5.38;;;28.10;84.60;;;;;;5054111;28;20059;-49
2022/10/22 08:57:19;;;;;;;11.30;6.40;;;28.10;84.90;;;;;;5002661;28;20533;-48
2022/10/22 08:59:52;;;;;;;10.77;5.32;;;27.90;86.10;;;;;;4988127;28;20129;-48
2022/10/22 09:02:32;;;;;;;10.30;6.22;;;27.30;88.80;;;;;;5008066;28;20053;-47
2022/10/22 09:05:28;;;;;;;10.52;5.55;;;26.80;85.90;;;;;;5005124;28;20034;-48
2022/10/22 09:07:54;;;;;;;13.95;6.13;;;26.40;86.90;;;;;;4947147;29;20403;-48
2022/10/22 09:10:23;;;;;;;10.50;5.03;;;26.30;94.30;;;;;;4944954;29;20063;-48
2022/10/22 09:12:50;;;;;;;8.38;4.93;;;;;;;;;;4932818;29;20117;-49
2022/10/22 09:15:19;;;;;;;17.05;9.60;;;26.50;96.80;;;;;;4928336;29;20043;-48
2022/10/22 09:18:38;;;;;;;73.80;50.92;;;25.20;87.50;;;;;;4898765;29;20060;-49
2022/10/22 09:21:13;;;;;;;13.48;8.25;;;;;;;;;;4878313;29;20045;-48
2022/10/22 09:24:11;;;;;;;16.33;10.70;;;24.10;95.60;;;;;;4878149;29;20052;-48
2022/10/22 09:26:39;;;;;;;18.20;8.48;;;24.50;97.10;;;;;;4878763;29;20533;-48
2022/10/22 09:29:06;;;;;;;9.07;5.18;;;24.50;97.10;;;;;;4880210;29;20048;-48
2022/10/22 09:31:33;;;;;;;8.48;6.57;;;23.90;88.90;;;;;;4876921;29;20155;-48
2022/10/22 09:34:04;;;;;;;18.23;10.82;;;24.10;90.10;;;;;;4883485;29;20040;-48
2022/10/22 09:36:30;;;;;;;;;;;24.10;90.00;;;;;;4910461;29;20058;-49
2022/10/22 09:38:56;;;;;;;20.17;13.68;;;24.30;90.60;;;;;;4896364;29;19923;-48
2022/10/22 09:41:30;;;;;;;16.70;12.38;;;24.60;90.90;;;;;;4897871;29;20045;-48
2022/10/22 09:43:58;;;;;;;19.63;13.73;;;24.90;90.90;;;;;;4905372;28;20088;-48
2022/10/22 09:46:28;;;;;;;25.83;16.70;;;25.10;91.10;;;;;;4966209;28;20049;-48
2022/10/22 09:49:02;;;;;;;19.08;12.45;;;24.90;91.20;;;;;;4986372;28;20030;-48
2022/10/22 09:52:01;;;;;;;23.30;15.93;;;24.70;90.40;;;;;;5014678;28;20079;-49
2022/10/22 09:54:40;;;;;;;24.08;12.00;;;24.50;91.30;;;;;;4953313;28;20110;-48
2022/10/22 09:57:05;;;;;;;16.60;12.10;;;24.50;91.30;;;;;;4943074;29;20055;-49
2022/10/22 09:59:33;;;;;;;15.93;11.20;;;;;;;;;;4954449;28;20114;-48
2022/10/22 10:02:11;;;;;;;15.38;9.80;;;24.40;91.50;;;;;;4939862;29;20126;-48
2022/10/22 10:04:55;;;;;;;10.25;7.07;;;24.30;91.30;;;;;;4955189;28;20423;-48
2022/10/22 10:07:26;;;;;;;11.73;6.97;;;24.20;90.50;;;;;;4938944;28;20047;-50
2022/10/22 10:09:53;;;;;;;13.18;7.32;;;24.30;90.30;;;;;;4958825;28;20043;-48
2022/10/22 10:12:28;;;;;;;17.50;9.20;;;24.40;90.10;;;;;;4940659;29;20047;-48
2022/10/22 10:15:15;;;;;;;18.77;8.35;;;24.40;91.00;;;;;;4955175;28;20118;-48
2022/10/22 10:17:57;;;;;;;14.75;8.55;;;24.60;90.50;;;;;;4955743;28;20131;-48
2022/10/22 10:20:32;;;;;;;12.70;7.30;;;24.70;90.30;;;;;;4953458;28;20066;-48
2022/10/22 10:23:07;;;;;;;14.00;7.00;;;25.00;90.20;;;;;;4951964;28;20077;-49
2022/10/22 10:25:51;;;;;;;17.05;8.38;;;25.00;90.00;;;;;;4956554;28;20023;-48
2022/10/22 10:28:38;;;;;;;17.33;10.15;;;25.00;90.10;;;;;;4956379;28;20102;-48
2022/10/22 10:31:09;;;;;;;20.00;12.10;;;24.90;90.10;;;;;;5040394;28;20043;-48
2022/10/22 10:33:34;;;;;;;16.17;8.83;;;25.10;90.60;;;;;;5040084;28;20049;-48
2022/10/22 10:36:16;;;;;;;14.55;9.48;;;25.10;90.50;;;;;;5030870;28;20095;-48
2022/10/22 10:39:10;;;;;;;18.98;8.85;;;25.00;90.40;;;;;;5048965;28;20135;-48
2022/10/22 10:41:54;;;;;;;14.00;7.90;;;24.70;89.70;;;;;;4992679;28;20042;-48
2022/10/22 10:44:42;;;;;;;14.90;8.60;;;24.70;90.00;;;;;;4994360;28;20045;-48
2022/10/22 10:47:25;;;;;;;17.83;8.13;;;24.70;90.30;;;;;;4993264;28;20088;-48
2022/10/22 10:50:00;;;;;;;16.25;8.60;;;24.90;90.30;;;;;;4976162;28;20050;-48
2022/10/22 10:52:40;;;;;;;13.05;9.65;;;24.80;90.40;;;;;;4993330;28;20137;-48
2022/10/22 10:55:57;;;;;;;16.30;10.20;;;24.80;90.80;;;;;;4994010;28;20030;-49
2022/10/22 10:58:38;;;;;;;16.42;8.38;;;24.90;91.20;;;;;;4887001;29;20048;-48
2022/10/22 11:01:35;;;;;;;16.75;10.48;;;25.10;91.60;;;;;;4881800;29;20048;-48
2022/10/22 11:04:32;;;;;;;19.85;10.82;;;25.30;91.20;;;;;;4863786;29;20165;-48
2022/10/22 11:07:02;;;;;;;22.63;14.40;;;25.30;90.20;;;;;;4862600;29;20518;-48
2022/10/22 11:09:38;;;;;;;18.45;11.73;;;25.40;90.00;;;;;;4862502;29;20441;-47
2022/10/22 11:12:11;;;;;;;16.77;10.60;;;25.60;90.40;;;;;;4862503;29;20130;-48
2022/10/22 11:15:12;;;;;;;16.00;9.00;;;25.60;90.20;;;;;;4849368;29;20044;-48
2022/10/22 11:17:44;;;;;;;20.73;11.43;;;25.50;89.30;;;;;;4862200;29;20049;-49
2022/10/22 11:20:18;;;;;;;12.60;8.85;;;25.50;90.10;;;;;;4840853;29;20390;-49
2022/10/22 11:23:04;;;;;;;16.83;10.48;;;25.40;89.80;;;;;;4842829;29;20053;-48
2022/10/22 11:25:47;;;;;;;21.92;12.95;;;25.50;90.00;;;;;;4841123;29;20042;-48
2022/10/22 11:28:31;;;;;;;24.13;11.48;;;25.50;90.00;;;;;;4846038;29;20133;-48
2022/10/22 11:31:17;;;;;;;21.48;12.95;;;25.50;90.00;;;;;;4843215;29;20034;-48
2022/10/22 11:34:01;;;;;;;22.30;12.15;;;25.60;90.30;;;;;;4845577;28;20081;-49
2022/10/22 11:36:29;;;;;;;12.75;8.85;;;25.60;90.10;;;;;;4966863;28;20031;-49
2022/10/22 11:38:55;;;;;;;15.80;7.47;;;25.40;89.40;;;;;;4966035;28;20061;-50
2022/10/22 11:41:29;;;;;;;16.05;9.68;;;25.30;89.20;;;;;;5027906;28;20474;-48
2022/10/22 11:43:55;;;;;;;16.42;8.65;;;25.30;89.80;;;;;;5045895;28;20439;-48
2022/10/22 11:46:20;;;;;;;16.60;9.07;;;25.30;89.70;;;;;;5029890;28;20051;-48
2022/10/22 11:49:13;;;;;;;12.57;8.57;;;25.10;89.90;;;;;;5050533;28;20033;-48
2022/10/22 11:51:41;;;;;;;13.05;7.63;;;25.10;90.20;;;;;;5044375;28;20357;-48
2022/10/22 11:54:25;;;;;;;14.98;7.95;;;25.00;90.00;;;;;;5054526;28;20039;-49
2022/10/22 11:56:57;;;;;;;15.38;7.78;;;24.90;90.10;;;;;;5048669;28;20065;-49
2022/10/22 11:59:43;;;;;;;21.00;14.63;;;24.80;90.10;;;;;;5047718;28;20029;-49
2022/10/22 12:02:26;;;;;;;16.17;9.23;;;24.90;90.70;;;;;;5050177;28;20072;-49
2022/10/22 12:04:54;;;;;;;13.48;9.00;;;24.90;90.30;;;;;;5053655;28;20091;-49
2022/10/22 12:07:49;;;;;;;14.27;8.18;;;24.80;90.10;;;;;;5045942;28;20563;-49
2022/10/22 12:10:20;;;;;;;14.02;8.00;;;24.80;90.10;;;;;;5046902;28;20044;-49
2022/10/22 12:13:15;;;;;;;14.75;9.20;;;25.00;90.40;;;;;;5044885;28;20090;-49
2022/10/22 12:15:50;;;;;;;17.23;8.27;;;25.30;90.70;;;;;;5044957;28;20045;-50
2022/10/22 12:18:16;;;;;;;12.45;7.13;;;25.40;90.00;;;;;;5049933;28;20033;-50
2022/10/22 12:20:42;;;;;;;15.88;7.68;;;25.60;90.70;;;;;;5051801;28;20041;-49
2022/10/22 12:23:12;;;;;;;11.07;7.57;;;25.70;90.50;;;;;;5004882;28;20514;-49
2022/10/22 12:25:38;;;;;;;13.50;9.40;;;25.80;90.20;;;;;;5053059;28;20041;-49
2022/10/22 12:28:04;;;;;;;16.85;9.02;;;25.90;89.60;;;;;;5054934;28;20066;-49
2022/10/22 12:30:33;;;;;;;16.17;9.48;;;26.20;90.00;;;;;;5013389;28;20045;-49
2022/10/22 12:33:01;;;;;;;16.73;9.95;;;26.30;90.20;;;;;;5053998;28;20051;-50
2022/10/22 12:35:32;;;;;;;15.85;9.38;;;26.50;90.40;;;;;;4989597;28;20680;-49
2022/10/22 12:38:01;;;;;;;18.40;9.50;;;26.30;90.30;;;;;;4986660;28;20124;-49
2022/10/22 12:40:29;;;;;;;17.90;10.88;;;26.20;91.00;;;;;;4974927;28;20031;-49
2022/10/22 12:42:58;;;;;;;21.33;11.52;;;26.20;91.10;;;;;;4994805;28;20034;-49
2022/10/22 12:45:31;;;;;;;19.30;10.32;;;26.40;92.30;;;;;;4990009;28;20043;-50
2022/10/22 12:48:14;;;;;;;17.42;10.02;;;26.70;92.60;;;;;;4990874;28;20478;-49
2022/10/22 12:50:43;;;;;;;14.45;9.57;;;27.00;91.90;;;;;;4942008;28;20030;-50
2022/10/22 12:53:22;;;;;;;18.08;10.00;;;27.00;90.50;;;;;;4974721;28;20124;-50
2022/10/22 12:55:51;;;;;;;17.38;9.75;;;26.90;91.40;;;;;;4993064;28;20066;-49
2022/10/22 12:58:25;;;;;;;17.42;9.43;;;26.80;93.80;;;;;;4940666;28;20038;-49
2022/10/22 13:01:00;;;;;;;17.33;10.02;;;26.60;93.10;;;;;;4986479;28;20486;-49
2022/10/22 13:03:32;;;;;;;20.40;10.15;;;26.50;92.90;;;;;;4986716;28;20050;-50
2022/10/22 13:06:12;;;;;;;22.55;11.52;;;26.50;93.60;;;;;;4972183;28;20041;-50
2022/10/22 13:08:39;;;;;;;19.55;10.45;;;26.60;93.60;;;;;;5044575;28;20435;-49
2022/10/22 13:11:10;;;;;;;21.08;9.93;;;26.50;93.50;;;;;;5047172;28;20044;-49
2022/10/22 13:13:35;;;;;;;15.98;9.05;;;26.40;93.50;;;;;;5048803;28;20044;-49
2022/10/22 13:16:26;;;;;;;18.67;10.13;;;26.60;93.60;;;;;;5029463;28;20045;-50
2022/10/22 13:18:53;;;;;;;23.33;10.10;;;26.40;93.70;;;;;;4998990;28;20040;-49
2022/10/22 13:21:23;;;;;;;22.88;11.05;;;26.30;93.80;;;;;;5049314;28;20029;-50
2022/10/22 13:23:59;;;;;;;17.92;10.98;;;26.20;93.80;;;;;;5049917;28;20029;-50
2022/10/22 13:26:34;;;;;;;17.60;10.52;;;26.20;94.00;;;;;;5061043;28;20040;-51
2022/10/22 13:29:02;;;;;;;24.50;10.70;;;26.20;94.30;;;;;;5049892;28;20033;-50
2022/10/22 13:31:32;;;;;;;22.05;10.27;;;26.30;94.80;;;;;;5008001;28;20041;-49
2022/10/22 13:34:08;;;;;;;15.65;9.00;;;26.40;94.70;;;;;;5012810;28;20038;-49
2022/10/22 13:36:35;;;;;;;23.10;10.35;;;26.40;93.80;;;;;;5009505;28;20120;-48
2022/10/22 13:39:01;;;;;;;20.42;9.48;;;26.50;93.60;;;;;;5007848;28;20046;-49
2022/10/22 13:41:32;;;;;;;22.15;9.60;;;26.60;92.70;;;;;;5007964;28;20397;-49
2022/10/22 13:43:58;;;;;;;16.13;8.90;;;26.50;92.80;;;;;;5005609;28;20038;-51
2022/10/22 13:46:25;;;;;;;14.68;8.75;;;26.50;92.10;;;;;;4962043;28;20030;-49
2022/10/22 13:48:54;;;;;;;14.63;8.07;;;26.40;92.20;;;;;;5011989;28;20061;-49
2022/10/22 13:51:23;;;;;;;14.32;9.63;;;26.50;92.40;;;;;;5012848;28;20441;-48
2022/10/22 13:53:51;;;;;;;18.17;10.73;;;26.30;92.50;;;;;;5009484;28;20030;-48
2022/10/22 13:56:22;;;;;;;20.20;11.18;;;26.40;92.70;;;;;;5009008;28;20128;-48
2022/10/22 13:58:48;;;;;;;17.10;10.32;;;26.40;92.70;;;;;;5007697;28;20109;-48
2022/10/22 14:01:23;;;;;;;19.27;10.43;;;26.30;92.60;;;;;;5001376;28;20504;-49
2022/10/22 14:03:53;;;;;;;21.23;10.13;;;26.10;92.80;;;;;;5052328;28;20025;-48
2022/10/22 14:06:21;;;;;;;17.88;10.18;;;25.90;94.20;;;;;;5050971;28;20082;-48
2022/10/22 14:08:57;;;;;;;16.02;10.35;;;25.90;95.20;;;;;;5043951;28;20028;-48
2022/10/22 14:11:23;;;;;;;20.30;11.77;;;25.90;95.80;;;;;;4997033;28;20124;-48
2022/10/22 14:13:49;;;;;;;21.05;12.65;;;25.70;96.10;;;;;;5029474;28;20029;-50
2022/10/22 14:16:25;;;;;;;27.92;14.45;;;25.70;96.40;;;;;;5047303;28;20024;-49
2022/10/22 14:18:51;;;;;;;27.48;15.40;;;25.30;93.00;;;;;;5047672;28;20033;-48
2022/10/22 14:21:17;;;;;;;31.27;15.93;;;25.10;93.20;;;;;;5028401;28;20029;-48
2022/10/22 14:23:45;;;;;;;26.75;16.77;;;25.10;93.50;;;;;;5041683;28;20072;-48
2022/10/22 14:26:33;;;;;;;34.38;18.33;;;25.00;93.60;;;;;;5040193;28;20030;-47
2022/10/22 14:29:00;;;;;;;30.00;18.13;;;25.00;93.70;;;;;;5050492;28;20056;-48
2022/10/22 14:31:26;;;;;;;34.92;19.27;;;24.90;93.70;;;;;;4995278;28;20068;-50
2022/10/22 14:33:52;;;;;;;27.83;18.60;;;24.80;93.90;;;;;;5050299;28;20098;-48
2022/10/22 14:36:18;;;;;;;32.22;18.52;;;24.80;94.20;;;;;;5042637;28;20044;-47
2022/10/22 14:38:46;;;;;;;39.50;21.05;;;24.70;94.10;;;;;;5046701;28;20053;-49
2022/10/22 14:41:20;;;;;;;47.40;23.90;;;24.70;94.80;;;;;;5049454;28;20033;-49
2022/10/22 14:43:47;;;;;;;45.25;26.50;;;24.50;95.50;;;;;;5050493;28;20559;-48
2022/10/22 14:46:14;;;;;;;38.10;23.27;;;24.40;95.70;;;;;;5051791;28;20025;-48
2022/10/22 14:48:41;;;;;;;42.22;23.08;;;24.40;95.50;;;;;;5011145;28;20032;-48
2022/10/22 14:51:10;;;;;;;45.45;22.45;;;24.20;95.50;;;;;;5046760;28;20097;-49
2022/10/22 14:53:36;;;;;;;39.80;21.20;;;24.00;95.50;;;;;;5054533;28;20078;-48
2022/10/22 14:56:02;;;;;;;35.03;18.38;;;23.90;96.10;;;;;;5048468;28;20028;-48
2022/10/22 14:58:27;;;;;;;36.58;17.90;;;23.80;96.30;;;;;;5032205;28;20043;-48
2022/10/22 15:00:53;;;;;;;33.47;16.83;;;23.70;96.40;;;;;;5045966;28;20392;-48
2022/10/22 15:03:19;;;;;;;31.38;17.88;;;23.70;96.80;;;;;;5051617;28;20104;-48
2022/10/22 15:05:45;;;;;;;32.72;17.10;;;;;;;;;;5052274;28;20059;-49
2022/10/22 15:08:12;;;;;;;38.33;20.70;;;23.40;97.20;;;;;;5036160;28;20512;-47
2022/10/22 15:10:39;;;;;;;32.15;20.17;;;23.20;97.40;;;;;;5043463;28;20032;-47
2022/10/22 15:13:05;;;;;;;38.00;21.38;;;23.10;97.30;;;;;;5026903;28;20040;-47
2022/10/22 15:15:30;;;;;;;39.75;21.70;;;23.00;97.20;;;;;;5052640;28;20036;-49
2022/10/22 15:17:56;;;;;;;41.50;23.90;;;22.90;97.50;;;;;;5025312;28;20037;-47
2022/10/22 15:20:22;;;;;;;38.38;19.23;;;22.90;98.10;;;;;;5052160;28;20021;-48
2022/10/22 15:22:48;;;;;;;42.80;20.48;;;22.70;98.10;;;;;;5052762;28;20052;-48
2022/10/22 15:25:14;;;;;;;37.97;22.42;;;22.70;98.40;;;;;;5044887;28;20024;-49
2022/10/22 15:27:40;;;;;;;53.53;22.00;;;22.50;99.00;;;;;;5042676;28;20021;-48
2022/10/22 15:30:06;;;;;;;44.05;23.63;;;22.40;99.20;;;;;;5043533;28;20091;-47
2022/10/22 15:32:32;;;;;;;45.38;24.77;;;22.40;99.40;;;;;;4963272;28;20416;-48
2022/10/22 15:34:59;;;;;;;45.58;25.13;;;22.30;99.60;;;;;;4998059;28;20037;-48
2022/10/22 15:37:26;;;;;;;53.80;29.33;;;22.30;99.80;;;;;;5046668;28;20048;-48
2022/10/22 15:39:51;;;;;;;48.03;27.77;;;22.30;99.80;;;;;;5045307;28;20452;-48
2022/10/22 15:42:17;;;;;;;52.90;28.00;;;22.30;99.50;;;;;;5009373;28;20064;-48